createdAt,value
2023-02-20T00:00:28.050Z,4.37
2023-02-20T00:03:15.258Z,4.44
2023-02-20T00:06:00.756Z,4.53
2023-02-20T00:08:46.149Z,4.54
2023-02-20T00:11:31.800Z,4.60
2023-02-20T00:14:16.954Z,4.60
2023-02-20T00:17:02.146Z,4.60
2023-02-20T00:19:46.923Z,4.60
2023-02-20T00:22:31.725Z,4.69
2023-02-20T00:25:18.090Z,4.72
2023-02-20T00:28:03.651Z,4.70
2023-02-20T00:30:49.251Z,4.67
2023-02-20T00:33:34.080Z,4.75
2023-02-20T00:36:19.996Z,4.79
2023-02-20T00:39:04.942Z,4.75
2023-02-20T00:41:50.095Z,4.84
2023-02-20T00:44:34.992Z,4.86
2023-02-20T00:47:19.927Z,4.84
2023-02-20T00:50:06.555Z,4.81
2023-02-20T00:52:52.056Z,4.88
2023-02-20T00:55:36.964Z,4.90
2023-02-20T00:58:21.935Z,4.93
2023-02-20T01:01:07.125Z,4.90
2023-02-20T01:03:52.554Z,5.00
2023-02-20T01:06:37.324Z,4.96
2023-02-20T01:09:22.222Z,5.02
2023-02-20T01:12:08.073Z,5.00
2023-02-20T01:14:53.497Z,5.07
2023-02-20T01:17:38.530Z,5.08
2023-02-20T01:20:23.308Z,5.04
2023-02-20T01:23:08.047Z,5.13
2023-02-20T01:25:53.299Z,5.09
2023-02-20T01:28:38.431Z,5.18
2023-02-20T01:31:23.521Z,5.17
2023-02-20T01:34:09.025Z,5.17
2023-02-20T01:36:55.207Z,5.17
2023-02-20T01:39:41.119Z,5.18
2023-02-20T01:42:30.037Z,5.28
2023-02-20T01:45:24.438Z,5.26
2023-02-20T01:48:24.542Z,5.23
2023-02-20T01:51:10.129Z,5.23
2023-02-20T01:53:55.071Z,5.22
2023-02-20T01:56:41.804Z,5.17
2023-02-20T01:59:29.782Z,5.21
2023-02-20T02:02:15.947Z,5.23
2023-02-20T02:05:01.877Z,5.22
2023-02-20T02:07:47.267Z,5.26
2023-02-20T02:10:38.281Z,5.24
2023-02-20T02:13:23.500Z,5.23
2023-02-20T02:16:20.670Z,5.28
2023-02-20T02:19:52.469Z,5.24
2023-02-20T02:22:59.632Z,5.28
2023-02-20T02:26:09.791Z,5.28
2023-02-20T02:29:24.627Z,5.29
2023-02-20T02:32:34.441Z,5.29
2023-02-20T02:35:41.172Z,5.36
2023-02-20T02:38:35.655Z,5.38
2023-02-20T02:41:38.425Z,5.37
2023-02-20T02:44:43.808Z,5.36
2023-02-20T02:47:37.695Z,5.37
2023-02-20T02:50:29.557Z,5.40
2023-02-20T02:53:15.668Z,5.38
2023-02-20T02:56:20.447Z,5.33
2023-02-20T02:59:07.574Z,5.37
2023-02-20T03:01:59.327Z,5.32
2023-02-20T03:04:47.381Z,5.27
2023-02-20T03:07:37.945Z,5.20
2023-02-20T03:10:32.181Z,5.23
2023-02-20T03:13:18.117Z,5.26
2023-02-20T03:16:03.636Z,5.27
2023-02-20T03:18:51.586Z,5.27
2023-02-20T03:21:37.659Z,5.28
2023-02-20T03:24:26.163Z,5.27
2023-02-20T03:27:11.384Z,5.31
2023-02-20T03:29:59.292Z,5.30
2023-02-20T03:33:03.527Z,5.34
2023-02-20T03:36:08.716Z,5.40
2023-02-20T03:39:21.107Z,5.29
2023-02-20T03:42:31.423Z,5.32
2023-02-20T03:45:19.504Z,5.31
2023-02-20T03:48:12.199Z,5.29
2023-02-20T03:50:57.603Z,5.30
2023-02-20T03:53:44.788Z,5.28
2023-02-20T03:56:38.292Z,5.35
2023-02-20T03:59:29.245Z,5.34
2023-02-20T04:02:27.871Z,5.35
2023-02-20T04:05:20.829Z,5.41
2023-02-20T04:08:14.450Z,5.36
2023-02-20T04:11:03.941Z,5.33
2023-02-20T04:13:51.304Z,5.37
2023-02-20T04:16:44.655Z,5.32
2023-02-20T04:19:30.042Z,5.34
2023-02-20T04:22:22.562Z,5.39
2023-02-20T04:25:36.524Z,5.40
2023-02-20T04:28:22.102Z,5.38
2023-02-20T04:31:07.143Z,5.40
2023-02-20T04:33:51.892Z,5.43
2023-02-20T04:36:37.438Z,5.44
2023-02-20T04:39:22.439Z,5.41
2023-02-20T04:42:07.793Z,5.43
2023-02-20T04:44:52.656Z,5.42
2023-02-20T04:47:37.748Z,5.43
2023-02-20T04:50:24.623Z,5.44
2023-02-20T04:53:09.440Z,5.49
2023-02-20T04:55:54.299Z,5.53
2023-02-20T04:58:39.171Z,5.50
2023-02-20T05:01:24.114Z,5.53
2023-02-20T05:04:09.364Z,5.55
2023-02-20T05:06:56.567Z,5.54
2023-02-20T05:09:44.020Z,5.60
2023-02-20T05:12:29.603Z,5.56
2023-02-20T05:15:15.151Z,5.60
2023-02-20T05:18:00.300Z,5.56
2023-02-20T05:21:04.847Z,5.55
2023-02-20T05:23:49.999Z,5.56
2023-02-20T05:26:34.807Z,5.50
2023-02-20T05:29:19.556Z,5.44
2023-02-20T05:32:05.470Z,5.51
2023-02-20T05:34:50.725Z,5.50
2023-02-20T05:37:35.979Z,5.52
2023-02-20T05:40:21.001Z,5.46
2023-02-20T05:43:06.359Z,5.50
2023-02-20T05:45:51.223Z,5.52
2023-02-20T05:48:35.965Z,5.50
2023-02-20T05:51:27.347Z,5.56
2023-02-20T05:54:12.453Z,5.54
2023-02-20T05:56:57.591Z,5.54
2023-02-20T05:59:42.487Z,5.51
2023-02-20T06:02:33.713Z,5.59
2023-02-20T06:05:19.236Z,5.62
2023-02-20T06:08:04.819Z,5.58
2023-02-20T06:10:51.397Z,5.59
2023-02-20T06:13:36.539Z,5.58
2023-02-20T06:16:27.095Z,5.65
2023-02-20T06:19:17.199Z,5.68
2023-02-20T06:22:02.732Z,5.71
2023-02-20T06:24:48.415Z,5.77
2023-02-20T06:27:33.864Z,5.76
2023-02-20T06:30:19.058Z,5.73
2023-02-20T06:33:04.655Z,5.71
2023-02-20T06:35:49.644Z,5.73
2023-02-20T06:38:36.103Z,5.77
2023-02-20T06:41:22.084Z,5.77
2023-02-20T06:44:07.207Z,5.87
2023-02-20T06:46:52.369Z,5.88
2023-02-20T06:49:38.301Z,5.92
2023-02-20T06:52:23.504Z,5.93
2023-02-20T06:55:08.339Z,5.96
2023-02-20T06:57:53.708Z,5.90
2023-02-20T07:00:38.591Z,5.95
2023-02-20T07:03:23.613Z,6.03
2023-02-20T07:06:08.386Z,6.06
2023-02-20T07:08:54.129Z,6.12
2023-02-20T07:11:39.664Z,6.18
2023-02-20T07:14:24.887Z,6.22
2023-02-20T07:17:10.227Z,6.32
2023-02-20T07:19:55.891Z,6.33
2023-02-20T07:22:49.781Z,6.33
2023-02-20T07:25:34.459Z,6.44
2023-02-20T07:28:19.897Z,6.47
2023-02-20T07:31:06.094Z,6.52
2023-02-20T07:33:51.331Z,6.60
2023-02-20T07:36:36.479Z,6.64
2023-02-20T07:39:22.457Z,6.70
2023-02-20T07:42:08.780Z,6.77
2023-02-20T07:44:53.537Z,6.73
2023-02-20T07:47:38.517Z,6.82
2023-02-20T07:50:23.478Z,6.84
2023-02-20T07:53:14.136Z,6.87
2023-02-20T07:55:58.763Z,6.90
2023-02-20T07:58:44.062Z,6.93
2023-02-20T08:01:29.864Z,6.95
2023-02-20T08:04:15.469Z,7.00
2023-02-20T08:07:00.694Z,7.04
2023-02-20T08:09:48.774Z,7.13
2023-02-20T08:12:33.568Z,7.11
2023-02-20T08:15:20.000Z,7.14
2023-02-20T08:18:10.143Z,7.11
2023-02-20T08:21:00.974Z,7.18
2023-02-20T08:23:45.816Z,7.21
2023-02-20T08:26:31.213Z,7.26
2023-02-20T08:29:16.562Z,7.31
2023-02-20T08:32:01.789Z,7.31
2023-02-20T08:34:46.487Z,7.37
2023-02-20T08:37:31.780Z,7.45
2023-02-20T08:40:17.073Z,7.52
2023-02-20T08:43:02.222Z,7.64
2023-02-20T08:45:47.545Z,7.65
2023-02-20T08:48:34.253Z,7.69
2023-02-20T08:51:21.368Z,7.86
2023-02-20T08:54:06.934Z,7.84
2023-02-20T08:56:52.479Z,7.77
2023-02-20T08:59:39.461Z,7.77
2023-02-20T09:02:28.555Z,7.76
2023-02-20T09:05:15.270Z,7.64
2023-02-20T09:08:01.158Z,7.64
2023-02-20T09:10:46.365Z,7.60
2023-02-20T09:13:31.190Z,7.53
2023-02-20T09:16:20.204Z,7.53
2023-02-20T09:19:07.528Z,7.49
2023-02-20T09:21:52.624Z,7.57
2023-02-20T09:24:37.446Z,7.54
2023-02-20T09:27:22.191Z,7.61
2023-02-20T09:30:07.825Z,7.65
2023-02-20T09:32:54.283Z,7.66
2023-02-20T09:35:39.747Z,7.78
2023-02-20T09:38:27.528Z,7.83
2023-02-20T09:41:27.565Z,7.84
2023-02-20T09:44:38.520Z,7.84
2023-02-20T09:47:51.702Z,7.81
2023-02-20T09:50:53.296Z,7.80
2023-02-20T09:54:07.344Z,7.83
2023-02-20T09:56:57.035Z,7.82
2023-02-20T09:59:51.983Z,7.89
2023-02-20T10:02:45.286Z,7.94
2023-02-20T10:05:31.723Z,7.86
2023-02-20T10:08:21.622Z,7.88
2023-02-20T10:11:11.866Z,7.85
2023-02-20T10:14:11.862Z,7.80
2023-02-20T10:17:56.796Z,7.77
2023-02-20T10:21:06.078Z,7.81
2023-02-20T10:24:05.605Z,7.81
2023-02-20T10:26:58.038Z,7.83
2023-02-20T10:29:46.064Z,7.85
2023-02-20T10:32:44.234Z,7.82
2023-02-20T10:36:00.489Z,7.77
2023-02-20T10:38:59.351Z,7.63
2023-02-20T10:42:01.914Z,7.75
2023-02-20T10:45:01.127Z,7.70
2023-02-20T10:47:50.530Z,7.63
2023-02-20T10:50:44.363Z,7.69
2023-02-20T10:53:35.941Z,7.68
2023-02-20T10:56:30.444Z,7.66
2023-02-20T10:59:22.529Z,7.65
2023-02-20T11:02:18.308Z,7.67
2023-02-20T11:05:11.381Z,7.62
2023-02-20T11:07:56.559Z,7.59
2023-02-20T11:10:41.677Z,7.60
2023-02-20T11:13:26.818Z,7.64
2023-02-20T11:16:26.379Z,7.69
2023-02-20T11:19:20.441Z,7.68
2023-02-20T11:22:06.221Z,7.74
2023-02-20T11:24:51.109Z,7.74
2023-02-20T11:27:36.438Z,7.73
2023-02-20T11:30:32.004Z,7.69
2023-02-20T11:33:26.572Z,7.69
2023-02-20T11:36:20.706Z,7.69
2023-02-20T11:39:32.265Z,7.67
2023-02-20T11:42:21.181Z,7.71
2023-02-20T11:45:13.983Z,7.70
2023-02-20T11:48:12.588Z,7.70
2023-02-20T11:50:58.166Z,7.71
2023-02-20T11:53:44.238Z,7.73
2023-02-20T11:56:33.198Z,7.74
2023-02-20T11:59:29.884Z,7.73
2023-02-20T12:02:17.886Z,7.73
2023-02-20T12:05:06.060Z,7.70
2023-02-20T12:07:57.864Z,7.70
2023-02-20T12:10:47.475Z,7.67
2023-02-20T12:13:38.901Z,7.65
2023-02-20T12:16:41.640Z,7.60
2023-02-20T12:19:38.796Z,7.58
2023-02-20T12:22:34.548Z,7.62
2023-02-20T12:25:53.646Z,7.65
2023-02-20T12:28:48.198Z,7.62
2023-02-20T12:32:03.288Z,7.55
2023-02-20T12:35:10.275Z,7.60
2023-02-20T12:38:31.998Z,7.60
2023-02-20T12:41:32.512Z,7.59
2023-02-20T12:44:46.188Z,7.62
2023-02-20T12:47:42.312Z,7.55
2023-02-20T12:50:28.636Z,7.47
2023-02-20T12:53:24.867Z,7.42
2023-02-20T12:56:28.298Z,7.44
2023-02-20T12:59:28.578Z,7.44
2023-02-20T13:02:40.713Z,7.42
2023-02-20T13:05:28.116Z,7.42
2023-02-20T13:08:21.161Z,7.38
2023-02-20T13:11:19.218Z,7.45
2023-02-20T13:14:13.044Z,7.41
2023-02-20T13:17:07.530Z,7.44
2023-02-20T13:20:00.322Z,7.40
2023-02-20T13:23:01.288Z,7.41
2023-02-20T13:25:50.658Z,7.43
2023-02-20T13:28:43.033Z,7.45
2023-02-20T13:31:38.654Z,7.48
2023-02-20T13:34:35.829Z,7.48
2023-02-20T13:37:38.333Z,7.52
2023-02-20T13:40:26.288Z,7.55
2023-02-20T13:43:24.531Z,7.49
2023-02-20T13:46:14.569Z,7.47
2023-02-20T13:49:01.256Z,7.51
2023-02-20T13:51:46.179Z,7.53
2023-02-20T13:54:33.943Z,7.56
2023-02-20T13:57:19.058Z,7.57
2023-02-20T14:00:20.796Z,7.56
2023-02-20T14:03:28.392Z,7.53
2023-02-20T14:06:16.423Z,7.56
2023-02-20T14:09:10.575Z,7.56
2023-02-20T14:12:08.186Z,7.59
2023-02-20T14:14:53.643Z,7.49
2023-02-20T14:17:42.864Z,7.50
2023-02-20T14:20:37.653Z,7.51
2023-02-20T14:23:28.243Z,7.50
2023-02-20T14:26:31.457Z,7.46
2023-02-20T14:29:28.564Z,7.44
2023-02-20T14:32:15.590Z,7.48
2023-02-20T14:35:13.167Z,7.46
2023-02-20T14:38:11.346Z,7.47
2023-02-20T14:40:57.005Z,7.46
2023-02-20T14:43:42.850Z,7.50
2023-02-20T14:46:34.053Z,7.46
2023-02-20T14:49:29.280Z,7.47
2023-02-20T14:52:20.267Z,7.53
2023-02-20T14:55:06.915Z,7.47
2023-02-20T14:57:51.989Z,7.48
2023-02-20T15:00:38.917Z,7.51
2023-02-20T15:03:30.941Z,7.53
2023-02-20T15:06:18.789Z,7.50
2023-02-20T15:09:19.822Z,7.47
2023-02-20T15:12:09.448Z,7.49
2023-02-20T15:15:01.596Z,7.44
2023-02-20T15:17:46.738Z,7.49
2023-02-20T15:20:31.503Z,7.43
2023-02-20T15:23:16.405Z,7.43
2023-02-20T15:26:38.093Z,7.46
2023-02-20T15:29:28.753Z,7.41
2023-02-20T15:32:13.924Z,7.41
2023-02-20T15:34:59.514Z,7.40
2023-02-20T15:37:49.353Z,7.39
2023-02-20T15:40:35.251Z,7.41
2023-02-20T15:46:25.932Z,7.36
2023-02-20T15:49:16.066Z,7.36
2023-02-20T15:52:10.340Z,7.38
2023-02-20T15:54:57.149Z,7.33
2023-02-20T15:57:43.586Z,7.36
2023-02-20T16:00:33.724Z,7.36
2023-02-20T16:03:21.366Z,7.34
2023-02-20T16:06:07.033Z,7.33
2023-02-20T16:08:52.923Z,7.34
2023-02-20T16:11:47.633Z,7.32
2023-02-20T16:14:32.779Z,7.33
2023-02-20T16:17:24.684Z,7.37
2023-02-20T16:20:29.990Z,7.32
2023-02-20T16:23:16.123Z,7.33
2023-02-20T16:26:01.710Z,7.31
2023-02-20T16:29:00.005Z,7.32
2023-02-20T16:31:54.459Z,7.33
2023-02-20T16:34:39.765Z,7.31
2023-02-20T16:37:26.639Z,7.33
2023-02-20T16:40:13.639Z,7.35
2023-02-20T16:42:58.356Z,7.36
2023-02-20T16:45:43.643Z,7.34
2023-02-20T16:48:28.593Z,7.37
2023-02-20T16:51:14.899Z,7.36
2023-02-20T16:54:00.009Z,7.39
2023-02-20T16:56:45.291Z,7.35
2023-02-20T16:59:30.289Z,7.44
2023-02-20T17:02:25.342Z,7.42
2023-02-20T17:05:11.496Z,7.40
2023-02-20T17:07:59.247Z,7.41
2023-02-20T17:10:46.815Z,7.46
2023-02-20T17:13:31.812Z,7.49
2023-02-20T17:16:25.579Z,7.46
2023-02-20T17:19:16.350Z,7.49
2023-02-20T17:22:01.131Z,7.50
2023-02-20T17:24:46.207Z,7.52
2023-02-20T17:27:31.408Z,7.50
2023-02-20T17:30:19.110Z,7.50
2023-02-20T17:33:04.585Z,7.51
2023-02-20T17:35:49.803Z,7.59
2023-02-20T17:38:37.293Z,7.58
2023-02-20T17:41:22.238Z,7.56
2023-02-20T17:44:07.641Z,7.62
2023-02-20T17:46:53.601Z,7.64
2023-02-20T17:49:41.286Z,7.66
2023-02-20T17:52:26.941Z,7.70
2023-02-20T17:55:19.920Z,7.65
2023-02-20T17:58:04.991Z,7.71
2023-02-20T18:00:51.083Z,7.71
2023-02-20T18:03:39.638Z,7.68
2023-02-20T18:06:24.916Z,7.72
2023-02-20T18:09:15.149Z,7.67
2023-02-20T18:12:00.844Z,7.65
2023-02-20T18:14:46.553Z,7.65
2023-02-20T18:17:32.256Z,7.70
2023-02-20T18:20:17.220Z,7.67
2023-02-20T18:23:02.505Z,7.73
2023-02-20T18:25:50.709Z,7.74
2023-02-20T18:28:35.606Z,7.70
2023-02-20T18:31:21.868Z,7.70
2023-02-20T18:34:06.859Z,7.68
2023-02-20T18:36:51.964Z,7.65
2023-02-20T18:39:37.367Z,7.66
2023-02-20T18:42:25.072Z,7.65
2023-02-20T18:45:10.247Z,7.67
2023-02-20T18:47:55.560Z,7.62
2023-02-20T18:50:40.718Z,7.62
2023-02-20T18:53:25.604Z,7.62
2023-02-20T18:56:13.107Z,7.68
2023-02-20T18:58:58.013Z,7.65
2023-02-20T19:01:44.141Z,7.67
2023-02-20T19:04:33.422Z,7.64
2023-02-20T19:07:18.862Z,7.67
2023-02-20T19:10:06.346Z,7.69
2023-02-20T19:12:53.086Z,7.66
2023-02-20T19:15:38.258Z,7.68
2023-02-20T19:18:23.049Z,7.66
2023-02-20T19:21:12.292Z,7.73
2023-02-20T19:23:59.665Z,7.72
2023-02-20T19:26:48.910Z,7.82
2023-02-20T19:29:34.956Z,7.76
2023-02-20T19:32:21.858Z,7.81
2023-02-20T19:35:13.789Z,7.75
2023-02-20T19:37:58.802Z,7.78
2023-02-20T19:40:44.687Z,7.73
2023-02-20T19:43:30.521Z,7.75
2023-02-20T19:46:22.491Z,7.76
2023-02-20T19:49:12.374Z,7.78
2023-02-20T19:51:57.714Z,7.83
2023-02-20T19:54:47.015Z,7.84
2023-02-20T19:57:31.848Z,7.81
2023-02-20T20:00:21.471Z,7.82
2023-02-20T20:03:06.406Z,7.81
2023-02-20T20:05:51.673Z,7.79
2023-02-20T20:08:40.308Z,7.81
2023-02-20T20:11:29.903Z,7.80
2023-02-20T20:14:15.952Z,7.84
2023-02-20T20:17:02.684Z,7.82
2023-02-20T20:19:58.506Z,7.84
2023-02-20T20:22:45.209Z,7.79
2023-02-20T20:25:31.369Z,7.83
2023-02-20T20:28:16.434Z,7.85
2023-02-20T20:31:03.602Z,7.84
2023-02-20T20:33:48.945Z,7.85
2023-02-20T20:36:34.785Z,7.85
2023-02-20T20:39:19.706Z,7.84
2023-02-20T20:42:05.106Z,7.86
2023-02-20T20:44:56.403Z,7.89
2023-02-20T20:47:48.901Z,7.86
2023-02-20T20:50:33.695Z,7.83
2023-02-20T20:53:19.220Z,7.82
2023-02-20T20:56:08.168Z,7.82
2023-02-20T20:58:55.011Z,7.86
2023-02-20T21:01:40.852Z,7.84
2023-02-20T21:04:26.990Z,7.85
2023-02-20T21:07:12.640Z,7.87
2023-02-20T21:09:58.661Z,7.83
2023-02-20T21:12:43.611Z,7.86
2023-02-20T21:15:28.896Z,7.88
2023-02-20T21:18:16.037Z,7.86
2023-02-20T21:21:02.154Z,7.89
2023-02-20T21:23:48.172Z,7.90
2023-02-20T21:26:34.260Z,7.87
2023-02-20T21:29:20.393Z,7.83
2023-02-20T21:32:08.136Z,7.81
2023-02-20T21:34:53.201Z,7.87
2023-02-20T21:37:38.067Z,7.86
2023-02-20T21:40:22.819Z,7.88
2023-02-20T21:43:29.389Z,7.86
2023-02-20T21:46:14.957Z,7.80
2023-02-20T21:49:05.785Z,7.80
2023-02-20T21:51:50.933Z,7.84
2023-02-20T21:54:38.770Z,7.82
2023-02-20T21:57:27.084Z,7.87
2023-02-20T22:00:15.582Z,7.82
2023-02-20T22:03:00.819Z,7.83
2023-02-20T22:05:46.217Z,7.82
2023-02-20T22:08:50.492Z,7.84
2023-02-20T22:11:56.289Z,7.85
2023-02-20T22:14:59.661Z,7.85
2023-02-20T22:18:03.586Z,7.85
2023-02-20T22:21:09.814Z,7.84
2023-02-20T22:24:15.746Z,7.85
2023-02-20T22:27:19.624Z,7.84
2023-02-20T22:30:26.700Z,7.83
2023-02-20T22:33:30.569Z,7.85
2023-02-20T22:36:36.160Z,7.84
2023-02-20T22:39:39.998Z,7.83
2023-02-20T22:42:44.241Z,7.84
2023-02-20T22:45:48.380Z,7.84
2023-02-20T22:48:52.256Z,7.83
2023-02-20T22:51:57.432Z,7.83
2023-02-20T22:55:06.123Z,7.83
2023-02-20T22:58:10.601Z,7.87
2023-02-20T23:01:15.244Z,7.86
2023-02-20T23:04:21.428Z,7.88
2023-02-20T23:07:25.148Z,7.86
2023-02-20T23:10:29.146Z,7.86
2023-02-20T23:13:33.166Z,7.91
2023-02-20T23:16:41.538Z,7.92
2023-02-20T23:19:45.566Z,7.88
2023-02-20T23:22:51.680Z,7.89
2023-02-20T23:25:56.111Z,7.90
2023-02-20T23:28:59.776Z,7.92
2023-02-20T23:32:03.443Z,7.94
2023-02-20T23:35:08.079Z,7.96
2023-02-20T23:38:12.929Z,7.94
2023-02-20T23:41:16.476Z,7.94
2023-02-20T23:44:22.802Z,7.95
2023-02-20T23:47:26.413Z,7.91
2023-02-20T23:50:30.325Z,7.94
2023-02-20T23:53:34.328Z,7.95
2023-02-20T23:56:38.703Z,7.99
2023-02-20T23:59:43.682Z,7.98
